Old Joe, Arkansas
Current Conditions -  °F | °C
As of 12:53 PM on Monday 22 Dec 2014 (Local Time) from KBPK Reporting Station
Overcast Overcast  
Wind Chill: 45°   Ceiling: 800
Heat Index: 49°   Visibility: 7mi
Dew Point: 48°   Wind: 9mph
Humidity: 97%   Direction: 180°S
Pressure: 29.56"   Gusts: NA
Location:  36.2155°N, 92.269°W
Report Text: KBPK 221853Z AUTO 18008KT 7SM BKN008 OVC012 09/09 A2956 RMK AO2 CIG 004V010 SLP008 T00940089
Loading
Personal Weather Stations






























Interactive Weather Map New forecast layout! Learn more

10-Day Weather Forecast

Advertisements
Track Severe Weather on mobile